createdAt,value
2023-05-06T00:02:34.423Z,8.80
2023-05-06T00:10:07.934Z,8.70
2023-05-06T00:15:09.938Z,8.70
2023-05-06T00:17:41.866Z,8.60
2023-05-06T00:20:12.200Z,8.70
2023-05-06T00:22:41.732Z,8.60
2023-05-06T00:25:13.195Z,8.70
2023-05-06T00:27:42.625Z,8.80
2023-05-06T00:30:20.760Z,8.70
2023-05-06T00:32:50.482Z,8.80
2023-05-06T00:35:23.064Z,8.70
2023-05-06T00:38:13.643Z,8.70
2023-05-06T02:29:03.799Z,9.00
2023-05-06T02:31:30.596Z,9.10
2023-05-06T02:34:02.042Z,9.00
2023-05-06T02:36:36.364Z,8.90
2023-05-06T02:39:03.194Z,8.90
2023-05-06T02:41:29.811Z,8.90
2023-05-06T02:44:00.850Z,8.90
2023-05-06T02:46:29.373Z,8.90
2023-05-06T02:49:01.570Z,8.80
2023-05-06T02:51:28.112Z,8.80
2023-05-06T02:53:54.685Z,8.80
2023-05-06T02:56:21.477Z,8.80
2023-05-06T02:58:48.055Z,8.80
2023-05-06T03:01:17.852Z,8.80
2023-05-06T03:03:49.983Z,8.90
2023-05-06T03:06:32.012Z,8.90
2023-05-06T03:09:02.341Z,8.80
2023-05-06T07:25:06.156Z,9.20
2023-05-06T07:27:32.935Z,9.20
2023-05-06T07:30:00.000Z,9.20
2023-05-06T07:32:26.564Z,9.20
2023-05-06T07:34:53.150Z,9.20
2023-05-06T07:37:19.656Z,9.20
2023-05-06T07:39:46.736Z,9.20
2023-05-06T07:42:13.309Z,9.20
2023-05-06T07:44:40.033Z,9.20
2023-05-06T07:47:06.648Z,9.20
2023-05-06T07:49:35.245Z,9.30
2023-05-06T07:52:01.931Z,9.20
2023-05-06T07:54:28.810Z,9.30
2023-05-06T07:56:55.865Z,9.30
2023-05-06T07:59:23.604Z,9.30
2023-05-06T08:01:50.125Z,9.30
2023-05-06T08:04:17.258Z,9.30
2023-05-06T08:06:43.857Z,9.40
2023-05-06T08:09:12.900Z,9.40
2023-05-06T08:11:43.599Z,9.40
2023-05-06T08:14:10.121Z,9.40
2023-05-06T08:16:36.889Z,9.50
2023-05-06T08:19:03.463Z,9.50
2023-05-06T08:21:30.069Z,9.50
2023-05-06T08:23:56.621Z,9.50
2023-05-06T08:26:23.117Z,9.60
2023-05-06T08:28:49.682Z,9.60
2023-05-06T08:31:16.324Z,9.60
2023-05-06T08:33:42.834Z,9.60
2023-05-06T08:36:09.472Z,9.60
2023-05-06T08:38:36.658Z,9.70
2023-05-06T08:41:09.045Z,9.70
2023-05-06T08:43:41.865Z,9.70
2023-05-06T08:46:08.797Z,9.70
2023-05-06T08:48:35.581Z,9.70
2023-05-06T08:51:03.696Z,9.80
2023-05-06T08:53:32.711Z,9.80
2023-05-06T08:56:06.762Z,9.80
2023-05-06T08:58:35.024Z,9.80
2023-05-06T09:01:03.132Z,9.80
2023-05-06T09:03:30.231Z,9.90
2023-05-06T09:05:57.742Z,9.80
2023-05-06T09:08:24.366Z,9.90
2023-05-06T09:10:50.953Z,9.80
2023-05-06T09:13:19.576Z,9.80
2023-05-06T09:15:49.090Z,9.80
2023-05-06T09:18:16.598Z,9.90
2023-05-06T09:20:45.178Z,9.90
2023-05-06T09:23:12.905Z,9.90
2023-05-06T09:25:39.757Z,9.90
2023-05-06T09:28:09.085Z,9.90
2023-05-06T09:30:43.567Z,10.00
2023-05-06T09:33:11.035Z,10.00
2023-05-06T09:35:42.706Z,10.00
2023-05-06T09:38:10.502Z,10.00
2023-05-06T09:40:38.393Z,10.00
2023-05-06T09:43:05.712Z,10.00
2023-05-06T09:45:32.803Z,10.00
2023-05-06T09:47:59.502Z,10.00
2023-05-06T09:50:26.662Z,10.10
2023-05-06T09:52:55.224Z,10.10
2023-05-06T09:55:23.393Z,10.10
2023-05-06T09:57:50.392Z,10.20
2023-05-06T10:00:17.479Z,10.20
2023-05-06T10:02:45.554Z,10.20
2023-05-06T10:05:14.042Z,10.20
2023-05-06T10:07:42.101Z,10.20
2023-05-06T10:10:11.270Z,10.30
2023-05-06T10:41:04.938Z,10.30
2023-05-06T10:43:34.280Z,10.50
2023-05-06T10:46:06.564Z,10.50
2023-05-06T10:48:33.664Z,10.50
2023-05-06T10:51:19.633Z,10.50
2023-05-06T10:53:55.878Z,10.50
2023-05-06T10:56:22.647Z,10.50
2023-05-06T10:58:49.180Z,10.50
2023-05-06T11:01:16.283Z,10.50
2023-05-06T11:03:44.231Z,10.50
2023-05-06T11:06:11.194Z,10.50
2023-05-06T12:19:08.271Z,10.90
2023-05-06T12:21:38.375Z,11.10
2023-05-06T12:24:05.418Z,11.10
2023-05-06T12:26:46.739Z,11.10
2023-05-06T12:29:17.215Z,11.10
2023-05-06T12:31:47.113Z,11.10
2023-05-06T12:34:18.377Z,11.10
2023-05-06T12:36:46.824Z,11.00
2023-05-06T12:39:14.298Z,11.10
2023-05-06T12:41:45.710Z,11.10
2023-05-06T12:44:32.276Z,11.10
2023-05-06T12:47:18.118Z,11.20
2023-05-06T12:49:52.740Z,11.20
2023-05-06T12:52:21.724Z,11.20
2023-05-06T12:54:49.019Z,11.20
2023-05-06T12:57:16.103Z,11.20
2023-05-06T12:59:45.242Z,11.20
2023-05-06T13:02:12.220Z,11.10
2023-05-06T13:04:39.359Z,11.20
2023-05-06T13:07:06.168Z,11.20
2023-05-06T13:09:33.117Z,11.10
2023-05-06T13:11:59.925Z,11.10
2023-05-06T13:14:26.544Z,11.10
2023-05-06T13:16:53.399Z,11.10
2023-05-06T13:19:31.654Z,11.10
2023-05-06T13:22:00.340Z,11.00
2023-05-06T13:24:27.132Z,11.00
2023-05-06T13:26:53.767Z,11.10
2023-05-06T13:29:20.596Z,11.10
2023-05-06T13:31:47.220Z,11.10
2023-05-06T13:34:13.790Z,11.10
2023-05-06T13:36:40.355Z,11.10
2023-05-06T13:39:07.182Z,11.10
2023-05-06T13:41:34.307Z,11.10
2023-05-06T13:44:04.031Z,11.10
2023-05-06T13:46:31.242Z,11.20
2023-05-06T13:48:57.830Z,11.10
2023-05-06T13:51:27.414Z,11.10
2023-05-06T13:53:53.925Z,11.10
2023-05-06T13:56:21.385Z,11.10
2023-05-06T13:58:47.901Z,11.10
2023-05-06T14:01:14.897Z,11.10
2023-05-06T14:03:41.440Z,11.10
2023-05-06T14:06:08.690Z,11.10
2023-05-06T14:08:35.255Z,11.00
2023-05-06T14:11:01.806Z,11.00
2023-05-06T14:13:31.183Z,11.00
2023-05-06T14:15:57.944Z,11.00
2023-05-06T14:18:26.827Z,11.00
2023-05-06T14:20:53.995Z,11.00
2023-05-06T14:23:20.683Z,11.00
2023-05-06T14:25:47.434Z,11.00
2023-05-06T14:28:15.413Z,11.00
2023-05-06T14:30:42.743Z,10.90
2023-05-06T14:33:09.895Z,10.90
2023-05-06T14:35:40.885Z,11.00
2023-05-06T14:38:07.617Z,11.00
2023-05-06T14:40:35.892Z,11.00
2023-05-06T14:43:03.141Z,10.90
2023-05-06T14:45:29.785Z,11.00
2023-05-06T14:47:56.415Z,11.00
2023-05-06T14:50:23.099Z,11.00
2023-05-06T14:52:49.648Z,11.00
2023-05-06T14:55:16.606Z,10.90
2023-05-06T14:57:43.115Z,10.90
2023-05-06T15:00:10.337Z,10.90
2023-05-06T15:02:40.830Z,10.90
2023-05-06T15:05:09.516Z,10.90
2023-05-06T15:07:36.586Z,10.90
2023-05-06T15:10:04.020Z,10.90
2023-05-06T15:12:30.748Z,10.90
2023-05-06T15:14:57.289Z,10.90
2023-05-06T15:17:23.922Z,10.90
2023-05-06T15:19:50.487Z,10.90
2023-05-06T15:22:17.063Z,10.80
2023-05-06T15:24:44.550Z,10.80
2023-05-06T15:27:11.120Z,10.80
2023-05-06T15:29:38.915Z,10.80
2023-05-06T15:32:05.824Z,10.80
2023-05-06T15:34:32.491Z,10.80
2023-05-06T15:37:01.563Z,10.80
2023-05-06T15:39:28.495Z,10.80
2023-05-06T15:41:55.173Z,10.80
2023-05-06T15:44:21.662Z,10.80
2023-05-06T15:46:48.269Z,10.70
2023-05-06T15:49:45.523Z,10.70
2023-05-06T15:52:01.678Z,10.70
2023-05-06T15:54:28.848Z,10.70
2023-05-06T15:56:56.367Z,10.70
2023-05-06T15:59:23.013Z,10.60
2023-05-06T16:04:19.072Z,10.60
2023-05-06T16:06:45.758Z,10.60
2023-05-06T16:09:12.349Z,10.50
2023-05-06T16:11:39.014Z,10.50
2023-05-06T16:14:05.604Z,10.50
2023-05-06T16:16:32.228Z,10.50
2023-05-06T16:18:58.772Z,10.50
2023-05-06T16:21:25.379Z,10.50
2023-05-06T16:23:51.895Z,10.60
2023-05-06T16:26:18.438Z,10.50
2023-05-06T16:28:45.052Z,10.60
2023-05-06T16:31:11.591Z,10.50
2023-05-06T16:33:38.187Z,10.50
2023-05-06T16:36:05.549Z,10.50
2023-05-06T16:38:32.136Z,10.50
2023-05-06T16:40:58.643Z,10.50
2023-05-06T16:43:25.190Z,10.50
2023-05-06T16:45:51.698Z,10.40
2023-05-06T16:48:18.381Z,10.50
2023-05-06T16:50:45.080Z,10.40
2023-05-06T16:53:11.698Z,10.40
2023-05-06T16:55:38.228Z,10.40
2023-05-06T16:58:04.794Z,10.40
2023-05-06T17:00:31.960Z,10.40
2023-05-06T17:02:58.821Z,10.40
2023-05-06T17:05:26.006Z,10.40
2023-05-06T17:07:52.637Z,10.40
2023-05-06T17:10:19.260Z,10.40
2023-05-06T17:12:46.095Z,10.40
2023-05-06T17:15:12.633Z,10.30
2023-05-06T17:17:39.839Z,10.40
2023-05-06T17:20:07.244Z,10.30
2023-05-06T17:22:34.045Z,10.30
2023-05-06T17:25:00.586Z,10.30
2023-05-06T17:27:27.149Z,10.30
2023-05-06T17:29:53.926Z,10.30
2023-05-06T17:32:20.635Z,10.30
2023-05-06T17:34:47.211Z,10.30
2023-05-06T17:37:13.751Z,10.30
2023-05-06T17:39:40.331Z,10.30
2023-05-06T17:42:08.327Z,10.30
2023-05-06T17:44:35.964Z,10.30
2023-05-06T17:47:02.456Z,10.30
2023-05-06T17:49:28.980Z,10.20
2023-05-06T17:51:56.022Z,10.30
2023-05-06T17:54:22.831Z,10.20
2023-05-06T17:56:52.632Z,10.20
2023-05-06T17:59:20.180Z,10.20
2023-05-06T18:01:47.370Z,10.20
2023-05-06T18:04:14.055Z,10.20
2023-05-06T18:06:41.881Z,10.20
2023-05-06T18:09:10.211Z,10.20
2023-05-06T18:11:38.652Z,10.20
2023-05-06T18:14:05.849Z,10.20
2023-05-06T18:16:32.620Z,10.20
2023-05-06T18:19:02.351Z,10.20
2023-05-06T18:21:28.944Z,10.20
2023-05-06T18:24:01.968Z,10.20
2023-05-06T18:26:43.875Z,10.10
2023-05-06T18:29:11.818Z,10.10
2023-05-06T18:31:38.462Z,10.10
2023-05-06T18:34:05.118Z,10.10
2023-05-06T18:36:32.053Z,10.10
2023-05-06T18:38:59.566Z,10.10
2023-05-06T18:41:26.425Z,10.00
2023-05-06T18:43:53.001Z,10.00
2023-05-06T18:46:19.593Z,10.00
2023-05-06T18:48:46.144Z,10.00
2023-05-06T18:51:17.391Z,9.90
2023-05-06T18:53:45.040Z,10.00
2023-05-06T18:56:13.222Z,9.90
2023-05-06T18:58:40.573Z,9.90
2023-05-06T19:01:09.707Z,9.90
2023-05-06T19:03:37.400Z,9.90
2023-05-06T19:06:05.442Z,9.90
2023-05-06T19:08:32.260Z,9.90
2023-05-06T19:10:59.680Z,9.80
2023-05-06T19:13:26.778Z,9.90
2023-05-06T19:15:53.691Z,9.90
2023-05-06T19:18:20.419Z,9.80
2023-05-06T19:20:46.977Z,9.80
2023-05-06T19:23:13.509Z,9.80
2023-05-06T20:46:23.967Z,9.30
2023-05-06T20:48:51.741Z,9.40
2023-05-06T20:51:18.585Z,9.40
2023-05-06T20:53:48.112Z,9.40
2023-05-06T20:56:24.623Z,9.40
2023-05-06T20:58:55.549Z,9.40
2023-05-06T21:01:23.853Z,9.30
2023-05-06T21:03:50.630Z,9.40
2023-05-06T21:06:18.688Z,9.30
2023-05-06T21:08:46.457Z,9.40
2023-05-06T21:11:13.824Z,9.30
2023-05-06T21:13:40.786Z,9.30
2023-05-06T21:16:07.482Z,9.40
2023-05-06T21:18:34.148Z,9.30
2023-05-06T21:21:00.884Z,9.30
2023-05-06T21:23:27.496Z,9.30
2023-05-06T21:25:54.206Z,9.30
2023-05-06T21:28:20.936Z,9.30
2023-05-06T21:30:47.554Z,9.30
2023-05-06T21:33:14.156Z,9.30
2023-05-06T21:35:40.835Z,9.30
2023-05-06T21:38:07.584Z,9.30
2023-05-06T21:40:34.169Z,9.30
2023-05-06T21:43:02.389Z,9.30
2023-05-06T21:45:29.245Z,9.30
2023-05-06T21:47:55.878Z,9.20
2023-05-06T21:50:22.795Z,9.30
2023-05-06T21:52:49.635Z,9.30
2023-05-06T21:55:16.330Z,9.30
2023-05-06T21:57:44.515Z,9.30
2023-05-06T22:00:12.522Z,9.20
2023-05-06T22:02:40.155Z,9.20
2023-05-06T22:05:08.337Z,9.20
2023-05-06T22:07:35.832Z,9.20
2023-05-06T22:10:02.954Z,9.20
2023-05-06T22:12:30.032Z,9.20
2023-05-06T22:14:56.785Z,9.20
2023-05-06T22:17:24.096Z,9.20
2023-05-06T22:19:51.865Z,9.20
2023-05-06T22:22:18.989Z,9.20
2023-05-06T22:24:45.733Z,9.20
2023-05-06T22:27:12.318Z,9.20
2023-05-06T22:29:39.088Z,9.20
2023-05-06T22:32:06.319Z,9.20
2023-05-06T22:34:32.993Z,9.10
2023-05-06T22:37:01.004Z,9.20
2023-05-06T22:39:28.043Z,9.10
2023-05-06T22:41:54.747Z,9.10
2023-05-06T22:44:21.435Z,9.10
2023-05-06T22:46:48.136Z,9.10
2023-05-06T22:49:15.833Z,9.10
2023-05-06T22:51:42.600Z,9.10
2023-05-06T22:54:09.270Z,9.10
2023-05-06T22:56:36.338Z,9.00
2023-05-06T22:59:03.172Z,9.10
2023-05-06T23:01:32.051Z,9.00
2023-05-06T23:03:59.564Z,9.00
2023-05-06T23:06:27.836Z,9.00
2023-05-06T23:08:54.400Z,9.00
2023-05-06T23:11:21.131Z,9.00
2023-05-06T23:13:47.838Z,9.00
2023-05-06T23:16:15.237Z,9.00
2023-05-06T23:18:42.035Z,9.00
2023-05-06T23:21:09.232Z,9.10
2023-05-06T23:23:35.775Z,9.10
2023-05-06T23:26:02.387Z,9.00
2023-05-06T23:28:29.109Z,9.00
2023-05-06T23:30:55.889Z,9.10
2023-05-06T23:33:22.571Z,9.00
2023-05-06T23:35:49.129Z,8.90
2023-05-06T23:38:15.643Z,8.90
2023-05-06T23:40:42.306Z,9.00
2023-05-06T23:43:11.111Z,8.90
2023-05-06T23:45:37.912Z,8.90
2023-05-06T23:48:05.100Z,8.90
2023-05-06T23:50:31.750Z,8.90
2023-05-06T23:52:58.367Z,8.90
2023-05-06T23:55:26.301Z,8.80
2023-05-06T23:57:53.071Z,8.80
